Shawnee Mission, KS (66224)

10:19 AM CST on March 01, 2015 (GMT -0600)
Villas of Highlands Ranch | Change Station
CLOSE
Current Station
Personal Weather Station
Location: Overland Park, KS
Elevation: 978 ft
Nearby Weather Stations
Active Advisory: Winter Weather Advisory Active Notice: Local Storm Report

Elev 978 ft 38.88 °N, 94.62 °W | Updated 7 minutes ago

Overcast
Overcast
29.5 °F
Feels Like 30 °F
N
2.0
Wind Variable Wind from NNE
Gusts 3.0 mph

Today
High -- | Low -- °F
--% Chance of Precip.
Yesterday
High -- | Low -- °F
Precip. -- in
6:51 AM 6:11 PM
Waxing Gibbous, 86% visible
Pressure 30.43 in
Visibility 10.0 miles
Clouds Few 1300 ft
Few 6000 ft
Mostly Cloudy 11000 ft
Windchill 30 °F
Dew Point 22 °F
Humidity 72%
Rainfall 0.00 in
Snow Depth Not available.
UV 2 out of 12
Pollen .50 out of 12
Air Quality Not available.
Flu Activity Not available.
METAR KOJC 011553Z 36007KT 10SM FEW013 FEW060 BKN110 M03/M07 A3038 RMK AO2 SLP302 T10331072

More Conditions Fewer Conditions

Pressure 30.43 in
Visibility 10.0 miles
Clouds Few 1300 ft
Few 6000 ft
Mostly Cloudy 11000 ft
Windchill 30 °F
Dew Point 22 °F
Humidity 72%
Rainfall 0.00 in
Snow Depth Not available.
UV 2 out of 12
Pollen .50 out of 12
Air Quality Not available.
Flu Activity Not available.
METAR KOJC 011553Z 36007KT 10SM FEW013 FEW060 BKN110 M03/M07 A3038 RMK AO2 SLP302 T10331072

More Conditions Fewer Conditions

10-Day Weather Forecast

Almanac

Astronomy

Mar. 01, 2015 Rise Set
Actual Time
Civil Twilight
Nautical Twilight
Astronomical Twilight
Moon
Length of Visible Light
Length of Day
Tomorrow will be .
, % of the Moon is Illuminated

Today's Extremes

State Highs State Lows

Community

WunderPhotos

Upload Photos

1,801,439 photos uploaded!

WunderBlogs® & News

Nearby

Air Quality

  Air Quality AQ Index Pollutant
Not available.

Snow Depth

Station Depth Elevation

Earthquake Activity

City Distance Mag. Time & Date
Minimum magnitude displayed is 2.5.

Coastal Water Temperatures

Place Temperature

Nearby Weather Stations

Winter Weather Advisory
Statement as of 3:29 AM CST on March 01, 2015

... Winter Weather Advisory remains in effect until 6 PM CST this
evening...

A Winter Weather Advisory for snow remains in effect until 6 PM CST
this evening.

* Timing... a band of snow will develop over the area this morning
with a second band expected late this morning into the afternoon.

* Snow accumulations... an additional half an inch to one inches of
snow are possible through this afternoon. Total accumulations will
range from 3 to 6 inches.

* Impacts... travel may be hazardous... .especially on any
untreated roadways while it is snowing.

Precautionary/preparedness actions...

A Winter Weather Advisory means that periods of snow... sleet... or
freezing rain will cause travel difficulties. Be prepared for
slippery roads and limited visibilities... and use caution while
driving.